sensor_id;sensor_type;location;lat;lon;timestamp;pressure;altitude;pressure_sealevel;temperature;humidity
50650;BME280;36621;60.058;30.346;2023-04-22T00:02:35;101078.84;;;10.76;51.08
50650;BME280;36621;60.058;30.346;2023-04-22T00:10:08;101085.59;;;10.64;51.13
50650;BME280;36621;60.058;30.346;2023-04-22T00:17:42;101049.16;;;10.37;51.12
50650;BME280;36621;60.058;30.346;2023-04-22T00:25:16;101029.72;;;10.34;51.50
50650;BME280;36621;60.058;30.346;2023-04-22T00:32:49;101084.00;;;10.68;51.76
50650;BME280;36621;60.058;30.346;2023-04-22T00:40:21;101074.09;;;10.56;52.34
50650;BME280;36621;60.058;30.346;2023-04-22T00:47:54;101077.41;;;10.64;52.37
50650;BME280;36621;60.058;30.346;2023-04-22T00:55:27;101051.94;;;10.53;52.01
50650;BME280;36621;60.058;30.346;2023-04-22T01:03:00;101064.59;;;10.69;51.67
50650;BME280;36621;60.058;30.346;2023-04-22T01:10:33;101044.06;;;10.56;52.06
50650;BME280;36621;60.058;30.346;2023-04-22T01:18:06;101056.06;;;10.55;52.22
50650;BME280;36621;60.058;30.346;2023-04-22T01:25:40;101056.03;;;10.50;52.28
50650;BME280;36621;60.058;30.346;2023-04-22T01:33:12;101028.44;;;10.47;50.73
50650;BME280;36621;60.058;30.346;2023-04-22T01:40:46;101022.75;;;10.53;50.83
50650;BME280;36621;60.058;30.346;2023-04-22T01:48:18;101015.63;;;10.52;51.31
50650;BME280;36621;60.058;30.346;2023-04-22T01:55:51;101005.03;;;10.56;50.81
50650;BME280;36621;60.058;30.346;2023-04-22T02:03:23;101029.38;;;10.68;50.86
50650;BME280;36621;60.058;30.346;2023-04-22T02:10:56;101010.75;;;10.54;50.57
50650;BME280;36621;60.058;30.346;2023-04-22T02:18:29;101024.69;;;10.58;50.68
50650;BME280;36621;60.058;30.346;2023-04-22T02:26:01;101031.00;;;10.69;50.59
50650;BME280;36621;60.058;30.346;2023-04-22T02:33:33;101035.63;;;10.63;50.46
50650;BME280;36621;60.058;30.346;2023-04-22T02:41:07;101031.56;;;10.76;50.38
50650;BME280;36621;60.058;30.346;2023-04-22T02:48:41;101021.19;;;10.73;50.05
50650;BME280;36621;60.058;30.346;2023-04-22T02:56:15;101017.34;;;10.64;50.30
50650;BME280;36621;60.058;30.346;2023-04-22T03:03:47;101016.22;;;10.59;50.08
50650;BME280;36621;60.058;30.346;2023-04-22T03:11:25;101025.31;;;10.75;50.20
50650;BME280;36621;60.058;30.346;2023-04-22T03:18:57;101022.31;;;10.77;50.59
50650;BME280;36621;60.058;30.346;2023-04-22T03:26:30;101036.00;;;10.82;50.07
50650;BME280;36621;60.058;30.346;2023-04-22T03:34:04;101022.34;;;10.82;50.78
50650;BME280;36621;60.058;30.346;2023-04-22T03:41:38;101015.81;;;10.93;50.50
50650;BME280;36621;60.058;30.346;2023-04-22T03:49:10;101018.34;;;11.16;49.58
50650;BME280;36621;60.058;30.346;2023-04-22T03:56:43;101000.63;;;12.11;46.86
50650;BME280;36621;60.058;30.346;2023-04-22T04:04:16;100981.09;;;14.61;41.21
50650;BME280;36621;60.058;30.346;2023-04-22T04:11:56;101009.59;;;17.60;35.93
50650;BME280;36621;60.058;30.346;2023-04-22T04:19:31;101003.44;;;18.48;33.64
50650;BME280;36621;60.058;30.346;2023-04-22T04:27:04;101012.56;;;19.15;32.32
50650;BME280;36621;60.058;30.346;2023-04-22T04:34:46;100998.16;;;20.48;30.32
50650;BME280;36621;60.058;30.346;2023-04-22T04:42:22;100997.75;;;21.94;28.16
50650;BME280;36621;60.058;30.346;2023-04-22T04:50:03;100993.66;;;22.62;26.71
50650;BME280;36621;60.058;30.346;2023-04-22T04:57:37;100987.16;;;23.64;25.69
50650;BME280;36621;60.058;30.346;2023-04-22T05:05:10;100985.81;;;24.18;24.58
50650;BME280;36621;60.058;30.346;2023-04-22T19:00:53;100794.28;;;12.07;43.19
50650;BME280;36621;60.058;30.346;2023-04-22T19:08:28;100791.63;;;11.96;43.43
50650;BME280;36621;60.058;30.346;2023-04-22T19:16:01;100774.94;;;11.82;44.21
50650;BME280;36621;60.058;30.346;2023-04-22T19:23:33;100765.69;;;11.73;44.10
50650;BME280;36621;60.058;30.346;2023-04-22T19:31:07;100754.53;;;11.59;44.13
50650;BME280;36621;60.058;30.346;2023-04-22T19:38:39;100796.63;;;11.69;44.89
50650;BME280;36621;60.058;30.346;2023-04-22T19:46:13;100800.72;;;11.61;45.02
50650;BME280;36621;60.058;30.346;2023-04-22T19:53:45;100764.19;;;11.26;45.09
50650;BME280;36621;60.058;30.346;2023-04-22T20:01:19;100785.22;;;11.30;45.51
50650;BME280;36621;60.058;30.346;2023-04-22T20:08:52;100800.81;;;11.15;45.60
50650;BME280;36621;60.058;30.346;2023-04-22T20:16:26;100804.66;;;11.24;46.35
50650;BME280;36621;60.058;30.346;2023-04-22T20:24:00;100809.56;;;11.11;46.50
50650;BME280;36621;60.058;30.346;2023-04-22T20:31:35;100780.88;;;10.83;46.23
50650;BME280;36621;60.058;30.346;2023-04-22T20:39:09;100798.34;;;10.98;46.07
50650;BME280;36621;60.058;30.346;2023-04-22T20:46:45;100784.72;;;10.82;46.23
50650;BME280;36621;60.058;30.346;2023-04-22T20:54:17;100768.59;;;10.65;46.86
50650;BME280;36621;60.058;30.346;2023-04-22T21:01:50;100763.94;;;10.66;46.92
50650;BME280;36621;60.058;30.346;2023-04-22T21:09:24;100781.97;;;10.56;47.08
50650;BME280;36621;60.058;30.346;2023-04-22T21:16:59;100786.63;;;10.61;46.65
50650;BME280;36621;60.058;30.346;2023-04-22T21:24:32;100774.31;;;10.43;47.40
50650;BME280;36621;60.058;30.346;2023-04-22T21:32:06;100777.03;;;10.43;47.89
50650;BME280;36621;60.058;30.346;2023-04-22T21:39:39;100793.88;;;10.30;47.65
50650;BME280;36621;60.058;30.346;2023-04-22T21:47:11;100777.50;;;10.19;47.69
50650;BME280;36621;60.058;30.346;2023-04-22T21:54:44;100801.00;;;10.25;47.48
50650;BME280;36621;60.058;30.346;2023-04-22T22:02:17;100802.66;;;10.32;47.38
50650;BME280;36621;60.058;30.346;2023-04-22T22:09:49;100793.34;;;10.28;46.75
50650;BME280;36621;60.058;30.346;2023-04-22T22:17:22;100785.72;;;10.24;46.70
50650;BME280;36621;60.058;30.346;2023-04-22T22:24:55;100780.53;;;10.23;46.70
50650;BME280;36621;60.058;30.346;2023-04-22T22:32:28;100781.88;;;10.20;47.25
50650;BME280;36621;60.058;30.346;2023-04-22T22:40:01;100790.09;;;10.25;47.36
50650;BME280;36621;60.058;30.346;2023-04-22T22:47:35;100787.63;;;10.29;47.26
50650;BME280;36621;60.058;30.346;2023-04-22T22:55:08;100781.88;;;10.20;47.27
50650;BME280;36621;60.058;30.346;2023-04-22T23:02:40;100785.72;;;10.24;47.37
50650;BME280;36621;60.058;30.346;2023-04-22T23:10:12;100778.31;;;10.15;47.66
50650;BME280;36621;60.058;30.346;2023-04-22T23:17:45;100778.59;;;10.23;48.01
50650;BME280;36621;60.058;30.346;2023-04-22T23:25:18;100736.81;;;9.97;47.49
50650;BME280;36621;60.058;30.346;2023-04-22T23:32:54;100780.50;;;10.28;48.03
50650;BME280;36621;60.058;30.346;2023-04-22T23:40:27;100760.84;;;10.05;48.45
50650;BME280;36621;60.058;30.346;2023-04-22T23:48:00;100771.50;;;10.22;48.35
50650;BME280;36621;60.058;30.346;2023-04-22T23:55:33;100771.50;;;10.22;49.14
